sensor_id;sensor_type;location;lat;lon;timestamp;P1;durP1;ratioP1;P2;durP2;ratioP2
19747;SDS011;10032;51.386;12.516;2024-03-08T00:01:28;16.23;;;10.53;;
19747;SDS011;10032;51.386;12.516;2024-03-08T00:03:53;17.93;;;10.27;;
19747;SDS011;10032;51.386;12.516;2024-03-08T00:06:18;14.70;;;11.00;;
19747;SDS011;10032;51.386;12.516;2024-03-08T00:08:44;14.83;;;8.70;;
19747;SDS011;10032;51.386;12.516;2024-03-08T00:11:09;15.97;;;10.23;;
19747;SDS011;10032;51.386;12.516;2024-03-08T00:13:35;18.43;;;9.80;;
19747;SDS011;10032;51.386;12.516;2024-03-08T00:16:01;20.10;;;10.97;;
19747;SDS011;10032;51.386;12.516;2024-03-08T00:18:27;16.17;;;9.67;;
19747;SDS011;10032;51.386;12.516;2024-03-08T00:20:52;17.90;;;10.23;;
19747;SDS011;10032;51.386;12.516;2024-03-08T00:23:18;15.63;;;9.20;;
19747;SDS011;10032;51.386;12.516;2024-03-08T00:25:43;17.77;;;10.70;;
19747;SDS011;10032;51.386;12.516;2024-03-08T00:28:08;16.90;;;10.40;;
19747;SDS011;10032;51.386;12.516;2024-03-08T00:30:38;15.67;;;9.23;;
19747;SDS011;10032;51.386;12.516;2024-03-08T00:33:03;16.70;;;8.60;;
19747;SDS011;10032;51.386;12.516;2024-03-08T00:35:29;15.50;;;9.43;;
19747;SDS011;10032;51.386;12.516;2024-03-08T00:37:55;18.37;;;11.60;;
19747;SDS011;10032;51.386;12.516;2024-03-08T00:40:21;16.97;;;9.23;;
19747;SDS011;10032;51.386;12.516;2024-03-08T00:42:47;15.53;;;10.07;;
19747;SDS011;10032;51.386;12.516;2024-03-08T00:45:13;17.30;;;11.30;;
19747;SDS011;10032;51.386;12.516;2024-03-08T00:47:38;19.53;;;9.80;;
19747;SDS011;10032;51.386;12.516;2024-03-08T00:50:04;14.90;;;8.07;;
19747;SDS011;10032;51.386;12.516;2024-03-08T00:52:30;22.57;;;10.43;;
19747;SDS011;10032;51.386;12.516;2024-03-08T00:54:55;15.70;;;8.73;;
19747;SDS011;10032;51.386;12.516;2024-03-08T00:57:21;20.13;;;9.80;;
19747;SDS011;10032;51.386;12.516;2024-03-08T00:59:47;17.33;;;9.23;;
19747;SDS011;10032;51.386;12.516;2024-03-08T01:02:13;14.43;;;9.07;;
19747;SDS011;10032;51.386;12.516;2024-03-08T01:04:38;18.37;;;10.40;;
19747;SDS011;10032;51.386;12.516;2024-03-08T01:07:04;14.87;;;9.60;;
19747;SDS011;10032;51.386;12.516;2024-03-08T01:09:29;14.63;;;9.10;;
19747;SDS011;10032;51.386;12.516;2024-03-08T01:11:55;19.33;;;11.20;;
19747;SDS011;10032;51.386;12.516;2024-03-08T01:14:21;18.50;;;10.50;;
19747;SDS011;10032;51.386;12.516;2024-03-08T01:16:48;15.23;;;9.03;;
19747;SDS011;10032;51.386;12.516;2024-03-08T01:19:14;18.50;;;10.57;;
19747;SDS011;10032;51.386;12.516;2024-03-08T01:21:40;18.10;;;9.50;;
19747;SDS011;10032;51.386;12.516;2024-03-08T01:24:06;16.73;;;10.67;;
19747;SDS011;10032;51.386;12.516;2024-03-08T01:26:31;15.70;;;9.67;;
19747;SDS011;10032;51.386;12.516;2024-03-08T01:28:59;17.57;;;10.43;;
19747;SDS011;10032;51.386;12.516;2024-03-08T01:31:24;14.27;;;8.73;;
19747;SDS011;10032;51.386;12.516;2024-03-08T01:33:50;19.57;;;10.23;;
19747;SDS011;10032;51.386;12.516;2024-03-08T01:36:15;17.97;;;9.43;;
19747;SDS011;10032;51.386;12.516;2024-03-08T01:38:42;19.17;;;9.83;;
19747;SDS011;10032;51.386;12.516;2024-03-08T01:41:07;14.40;;;9.97;;
19747;SDS011;10032;51.386;12.516;2024-03-08T01:43:34;16.90;;;9.20;;
19747;SDS011;10032;51.386;12.516;2024-03-08T01:45:59;17.40;;;9.00;;
19747;SDS011;10032;51.386;12.516;2024-03-08T01:48:26;18.87;;;9.37;;
19747;SDS011;10032;51.386;12.516;2024-03-08T01:50:54;14.87;;;8.37;;
19747;SDS011;10032;51.386;12.516;2024-03-08T01:53:21;18.00;;;9.63;;
19747;SDS011;10032;51.386;12.516;2024-03-08T01:55:48;16.13;;;9.20;;
19747;SDS011;10032;51.386;12.516;2024-03-08T01:58:14;16.33;;;9.10;;
19747;SDS011;10032;51.386;12.516;2024-03-08T02:00:45;19.27;;;10.27;;
19747;SDS011;10032;51.386;12.516;2024-03-08T02:03:14;16.63;;;9.33;;
19747;SDS011;10032;51.386;12.516;2024-03-08T02:05:40;17.37;;;9.77;;
19747;SDS011;10032;51.386;12.516;2024-03-08T02:08:06;19.77;;;11.40;;
19747;SDS011;10032;51.386;12.516;2024-03-08T02:10:35;16.90;;;9.83;;
19747;SDS011;10032;51.386;12.516;2024-03-08T02:13:01;17.00;;;10.03;;
19747;SDS011;10032;51.386;12.516;2024-03-08T02:15:50;20.40;;;8.80;;
19747;SDS011;10032;51.386;12.516;2024-03-08T02:18:19;17.63;;;10.00;;
19747;SDS011;10032;51.386;12.516;2024-03-08T02:20:47;17.97;;;10.40;;
19747;SDS011;10032;51.386;12.516;2024-03-08T02:23:13;16.13;;;9.33;;
19747;SDS011;10032;51.386;12.516;2024-03-08T02:25:39;17.63;;;9.00;;
19747;SDS011;10032;51.386;12.516;2024-03-08T02:28:06;18.67;;;9.77;;
19747;SDS011;10032;51.386;12.516;2024-03-08T02:30:34;17.83;;;9.93;;
19747;SDS011;10032;51.386;12.516;2024-03-08T02:32:59;21.27;;;12.43;;
19747;SDS011;10032;51.386;12.516;2024-03-08T02:35:24;15.07;;;9.33;;
19747;SDS011;10032;51.386;12.516;2024-03-08T02:37:50;17.50;;;11.57;;
19747;SDS011;10032;51.386;12.516;2024-03-08T02:40:15;19.13;;;10.10;;
19747;SDS011;10032;51.386;12.516;2024-03-08T02:42:41;20.90;;;10.17;;
19747;SDS011;10032;51.386;12.516;2024-03-08T02:45:07;14.63;;;8.13;;
19747;SDS011;10032;51.386;12.516;2024-03-08T02:47:34;15.87;;;9.37;;
19747;SDS011;10032;51.386;12.516;2024-03-08T02:50:00;18.77;;;9.53;;
19747;SDS011;10032;51.386;12.516;2024-03-08T02:52:26;19.23;;;10.93;;
19747;SDS011;10032;51.386;12.516;2024-03-08T02:54:52;18.53;;;10.27;;
19747;SDS011;10032;51.386;12.516;2024-03-08T02:57:17;16.23;;;9.10;;
19747;SDS011;10032;51.386;12.516;2024-03-08T02:59:43;17.30;;;9.93;;
19747;SDS011;10032;51.386;12.516;2024-03-08T03:02:09;18.53;;;10.73;;
19747;SDS011;10032;51.386;12.516;2024-03-08T03:04:35;17.20;;;10.07;;
19747;SDS011;10032;51.386;12.516;2024-03-08T03:07:01;17.70;;;9.50;;
19747;SDS011;10032;51.386;12.516;2024-03-08T03:09:26;16.27;;;9.53;;
19747;SDS011;10032;51.386;12.516;2024-03-08T03:11:55;17.43;;;8.60;;
19747;SDS011;10032;51.386;12.516;2024-03-08T03:14:21;19.03;;;10.27;;
19747;SDS011;10032;51.386;12.516;2024-03-08T03:16:47;18.50;;;10.57;;
19747;SDS011;10032;51.386;12.516;2024-03-08T03:19:12;16.17;;;10.53;;
19747;SDS011;10032;51.386;12.516;2024-03-08T03:21:38;17.73;;;11.10;;
19747;SDS011;10032;51.386;12.516;2024-03-08T03:24:04;18.07;;;9.17;;
19747;SDS011;10032;51.386;12.516;2024-03-08T03:26:35;15.53;;;10.20;;
19747;SDS011;10032;51.386;12.516;2024-03-08T03:29:07;19.47;;;9.60;;
19747;SDS011;10032;51.386;12.516;2024-03-08T03:31:34;18.27;;;10.13;;
19747;SDS011;10032;51.386;12.516;2024-03-08T03:34:00;22.07;;;10.03;;
19747;SDS011;10032;51.386;12.516;2024-03-08T03:36:28;15.80;;;9.37;;
19747;SDS011;10032;51.386;12.516;2024-03-08T03:38:56;19.77;;;11.20;;
19747;SDS011;10032;51.386;12.516;2024-03-08T03:41:32;18.87;;;9.67;;
19747;SDS011;10032;51.386;12.516;2024-03-08T03:43:57;19.73;;;10.10;;
19747;SDS011;10032;51.386;12.516;2024-03-08T03:46:24;16.47;;;11.47;;
19747;SDS011;10032;51.386;12.516;2024-03-08T03:48:49;16.63;;;9.60;;
19747;SDS011;10032;51.386;12.516;2024-03-08T03:51:14;17.10;;;10.00;;
19747;SDS011;10032;51.386;12.516;2024-03-08T03:53:40;19.27;;;11.30;;
19747;SDS011;10032;51.386;12.516;2024-03-08T03:56:06;17.67;;;10.77;;
19747;SDS011;10032;51.386;12.516;2024-03-08T03:58:32;16.00;;;10.20;;
19747;SDS011;10032;51.386;12.516;2024-03-08T04:00:58;16.17;;;10.93;;
19747;SDS011;10032;51.386;12.516;2024-03-08T04:03:23;19.00;;;11.53;;
19747;SDS011;10032;51.386;12.516;2024-03-08T04:05:48;20.67;;;11.20;;
19747;SDS011;10032;51.386;12.516;2024-03-08T04:08:14;21.13;;;10.33;;
19747;SDS011;10032;51.386;12.516;2024-03-08T04:10:39;19.20;;;11.43;;
19747;SDS011;10032;51.386;12.516;2024-03-08T04:13:07;14.97;;;10.03;;
19747;SDS011;10032;51.386;12.516;2024-03-08T04:15:34;21.87;;;10.70;;
19747;SDS011;10032;51.386;12.516;2024-03-08T04:18:00;15.90;;;9.97;;
19747;SDS011;10032;51.386;12.516;2024-03-08T04:20:25;19.20;;;10.77;;
19747;SDS011;10032;51.386;12.516;2024-03-08T04:22:50;15.53;;;9.27;;
19747;SDS011;10032;51.386;12.516;2024-03-08T04:25:16;22.63;;;11.40;;
19747;SDS011;10032;51.386;12.516;2024-03-08T04:27:42;17.93;;;10.50;;
19747;SDS011;10032;51.386;12.516;2024-03-08T04:30:08;19.47;;;10.97;;
19747;SDS011;10032;51.386;12.516;2024-03-08T04:32:33;16.60;;;10.43;;
19747;SDS011;10032;51.386;12.516;2024-03-08T04:34:59;20.83;;;11.83;;
19747;SDS011;10032;51.386;12.516;2024-03-08T04:37:26;15.70;;;10.10;;
19747;SDS011;10032;51.386;12.516;2024-03-08T04:39:54;18.23;;;10.70;;
19747;SDS011;10032;51.386;12.516;2024-03-08T04:42:20;18.90;;;12.53;;
19747;SDS011;10032;51.386;12.516;2024-03-08T04:44:45;20.07;;;12.30;;
19747;SDS011;10032;51.386;12.516;2024-03-08T04:47:11;19.47;;;9.73;;
19747;SDS011;10032;51.386;12.516;2024-03-08T04:49:36;16.53;;;10.53;;
19747;SDS011;10032;51.386;12.516;2024-03-08T04:52:02;16.90;;;10.63;;
19747;SDS011;10032;51.386;12.516;2024-03-08T04:54:28;15.53;;;9.83;;
19747;SDS011;10032;51.386;12.516;2024-03-08T04:56:54;18.30;;;11.23;;
19747;SDS011;10032;51.386;12.516;2024-03-08T04:59:20;25.23;;;11.37;;
19747;SDS011;10032;51.386;12.516;2024-03-08T05:01:45;14.97;;;10.07;;
19747;SDS011;10032;51.386;12.516;2024-03-08T05:04:10;17.13;;;11.07;;
19747;SDS011;10032;51.386;12.516;2024-03-08T05:06:36;20.33;;;10.80;;
19747;SDS011;10032;51.386;12.516;2024-03-08T05:09:02;20.43;;;10.67;;
19747;SDS011;10032;51.386;12.516;2024-03-08T05:11:38;18.07;;;10.23;;
19747;SDS011;10032;51.386;12.516;2024-03-08T05:14:07;16.23;;;9.23;;
19747;SDS011;10032;51.386;12.516;2024-03-08T05:16:33;18.77;;;9.73;;
19747;SDS011;10032;51.386;12.516;2024-03-08T05:18:59;19.73;;;11.43;;
19747;SDS011;10032;51.386;12.516;2024-03-08T05:21:24;20.00;;;10.57;;
19747;SDS011;10032;51.386;12.516;2024-03-08T05:23:50;16.33;;;9.87;;
19747;SDS011;10032;51.386;12.516;2024-03-08T05:26:16;18.23;;;10.60;;
19747;SDS011;10032;51.386;12.516;2024-03-08T05:28:41;18.50;;;10.23;;
19747;SDS011;10032;51.386;12.516;2024-03-08T05:31:07;19.63;;;12.13;;
19747;SDS011;10032;51.386;12.516;2024-03-08T05:33:33;21.53;;;10.30;;
19747;SDS011;10032;51.386;12.516;2024-03-08T05:36:01;19.67;;;10.27;;
19747;SDS011;10032;51.386;12.516;2024-03-08T05:38:27;17.43;;;10.60;;
19747;SDS011;10032;51.386;12.516;2024-03-08T05:40:53;19.50;;;11.70;;
19747;SDS011;10032;51.386;12.516;2024-03-08T05:43:19;19.97;;;10.57;;
19747;SDS011;10032;51.386;12.516;2024-03-08T05:45:45;21.73;;;10.43;;
19747;SDS011;10032;51.386;12.516;2024-03-08T05:48:11;22.70;;;11.73;;
19747;SDS011;10032;51.386;12.516;2024-03-08T05:50:39;15.87;;;9.43;;
19747;SDS011;10032;51.386;12.516;2024-03-08T05:53:04;17.23;;;9.87;;
19747;SDS011;10032;51.386;12.516;2024-03-08T05:55:32;19.63;;;10.17;;
19747;SDS011;10032;51.386;12.516;2024-03-08T05:58:01;18.53;;;10.90;;
19747;SDS011;10032;51.386;12.516;2024-03-08T06:00:27;22.43;;;11.47;;
19747;SDS011;10032;51.386;12.516;2024-03-08T06:02:52;23.43;;;13.93;;
19747;SDS011;10032;51.386;12.516;2024-03-08T06:05:17;20.73;;;11.53;;
19747;SDS011;10032;51.386;12.516;2024-03-08T06:07:43;17.10;;;9.33;;
19747;SDS011;10032;51.386;12.516;2024-03-08T06:10:09;22.80;;;11.70;;
19747;SDS011;10032;51.386;12.516;2024-03-08T06:12:35;17.80;;;9.93;;
19747;SDS011;10032;51.386;12.516;2024-03-08T06:15:05;21.27;;;13.10;;
19747;SDS011;10032;51.386;12.516;2024-03-08T06:17:31;20.97;;;10.43;;
19747;SDS011;10032;51.386;12.516;2024-03-08T06:19:57;17.67;;;11.47;;
19747;SDS011;10032;51.386;12.516;2024-03-08T06:22:22;24.33;;;12.37;;
19747;SDS011;10032;51.386;12.516;2024-03-08T06:24:47;24.50;;;12.77;;
19747;SDS011;10032;51.386;12.516;2024-03-08T06:27:13;20.53;;;10.97;;
19747;SDS011;10032;51.386;12.516;2024-03-08T06:29:39;21.47;;;10.63;;
19747;SDS011;10032;51.386;12.516;2024-03-08T06:32:04;17.80;;;11.27;;
19747;SDS011;10032;51.386;12.516;2024-03-08T06:34:32;20.37;;;12.83;;
19747;SDS011;10032;51.386;12.516;2024-03-08T06:36:59;24.97;;;13.63;;
19747;SDS011;10032;51.386;12.516;2024-03-08T06:39:26;19.77;;;11.80;;
19747;SDS011;10032;51.386;12.516;2024-03-08T06:41:52;21.77;;;11.73;;
19747;SDS011;10032;51.386;12.516;2024-03-08T06:44:17;18.37;;;10.60;;
19747;SDS011;10032;51.386;12.516;2024-03-08T06:46:42;19.03;;;11.17;;
19747;SDS011;10032;51.386;12.516;2024-03-08T06:49:08;19.27;;;9.80;;
19747;SDS011;10032;51.386;12.516;2024-03-08T06:51:35;21.27;;;12.00;;
19747;SDS011;10032;51.386;12.516;2024-03-08T06:54:01;22.47;;;12.47;;
19747;SDS011;10032;51.386;12.516;2024-03-08T06:56:26;23.93;;;12.67;;
19747;SDS011;10032;51.386;12.516;2024-03-08T06:58:53;20.33;;;11.57;;
19747;SDS011;10032;51.386;12.516;2024-03-08T07:01:18;20.80;;;10.70;;
19747;SDS011;10032;51.386;12.516;2024-03-08T07:03:43;19.43;;;11.23;;
19747;SDS011;10032;51.386;12.516;2024-03-08T07:06:12;19.80;;;11.97;;
19747;SDS011;10032;51.386;12.516;2024-03-08T07:08:39;25.77;;;11.47;;
19747;SDS011;10032;51.386;12.516;2024-03-08T07:11:04;23.83;;;13.13;;
19747;SDS011;10032;51.386;12.516;2024-03-08T07:13:30;27.17;;;13.70;;
19747;SDS011;10032;51.386;12.516;2024-03-08T07:15:55;23.00;;;13.60;;
19747;SDS011;10032;51.386;12.516;2024-03-08T07:18:21;20.63;;;11.77;;
19747;SDS011;10032;51.386;12.516;2024-03-08T07:20:47;20.73;;;11.63;;
19747;SDS011;10032;51.386;12.516;2024-03-08T07:23:12;21.37;;;12.10;;
19747;SDS011;10032;51.386;12.516;2024-03-08T07:25:58;18.67;;;13.20;;
19747;SDS011;10032;51.386;12.516;2024-03-08T07:28:23;20.80;;;13.27;;
19747;SDS011;10032;51.386;12.516;2024-03-08T07:30:48;21.00;;;14.07;;
19747;SDS011;10032;51.386;12.516;2024-03-08T07:33:14;24.60;;;14.33;;
19747;SDS011;10032;51.386;12.516;2024-03-08T07:35:39;20.93;;;12.03;;
19747;SDS011;10032;51.386;12.516;2024-03-08T07:38:06;19.60;;;10.37;;
19747;SDS011;10032;51.386;12.516;2024-03-08T07:40:36;20.60;;;12.33;;
19747;SDS011;10032;51.386;12.516;2024-03-08T07:43:11;20.80;;;12.30;;
19747;SDS011;10032;51.386;12.516;2024-03-08T07:45:37;21.83;;;12.97;;
19747;SDS011;10032;51.386;12.516;2024-03-08T07:48:03;19.40;;;12.37;;
19747;SDS011;10032;51.386;12.516;2024-03-08T07:50:34;22.07;;;12.80;;
19747;SDS011;10032;51.386;12.516;2024-03-08T07:53:02;25.07;;;15.00;;
19747;SDS011;10032;51.386;12.516;2024-03-08T07:55:28;26.13;;;14.47;;
19747;SDS011;10032;51.386;12.516;2024-03-08T07:57:56;21.23;;;11.67;;
19747;SDS011;10032;51.386;12.516;2024-03-08T08:00:21;23.43;;;11.67;;
19747;SDS011;10032;51.386;12.516;2024-03-08T08:02:49;24.70;;;12.50;;
19747;SDS011;10032;51.386;12.516;2024-03-08T08:05:15;23.77;;;13.23;;
19747;SDS011;10032;51.386;12.516;2024-03-08T08:07:44;24.60;;;13.93;;
19747;SDS011;10032;51.386;12.516;2024-03-08T08:10:11;27.50;;;14.40;;
19747;SDS011;10032;51.386;12.516;2024-03-08T08:12:43;24.20;;;15.10;;
19747;SDS011;10032;51.386;12.516;2024-03-08T08:15:09;26.37;;;14.43;;
19747;SDS011;10032;51.386;12.516;2024-03-08T08:17:34;21.83;;;12.93;;
19747;SDS011;10032;51.386;12.516;2024-03-08T08:20:00;24.27;;;11.90;;
19747;SDS011;10032;51.386;12.516;2024-03-08T08:22:25;20.23;;;12.23;;
19747;SDS011;10032;51.386;12.516;2024-03-08T08:24:50;24.47;;;12.63;;
19747;SDS011;10032;51.386;12.516;2024-03-08T08:27:17;21.57;;;11.77;;
19747;SDS011;10032;51.386;12.516;2024-03-08T08:29:42;18.93;;;10.37;;
19747;SDS011;10032;51.386;12.516;2024-03-08T08:32:08;23.77;;;11.23;;
19747;SDS011;10032;51.386;12.516;2024-03-08T08:34:35;24.33;;;12.43;;
19747;SDS011;10032;51.386;12.516;2024-03-08T08:37:01;26.70;;;13.87;;
19747;SDS011;10032;51.386;12.516;2024-03-08T08:39:26;21.13;;;12.63;;
19747;SDS011;10032;51.386;12.516;2024-03-08T08:41:52;23.40;;;13.53;;
19747;SDS011;10032;51.386;12.516;2024-03-08T08:44:18;21.80;;;12.23;;
19747;SDS011;10032;51.386;12.516;2024-03-08T08:46:43;20.70;;;12.37;;
19747;SDS011;10032;51.386;12.516;2024-03-08T08:49:09;21.00;;;12.13;;
19747;SDS011;10032;51.386;12.516;2024-03-08T08:51:39;21.33;;;11.40;;
19747;SDS011;10032;51.386;12.516;2024-03-08T08:54:05;18.50;;;10.63;;
19747;SDS011;10032;51.386;12.516;2024-03-08T08:56:31;19.10;;;10.67;;
19747;SDS011;10032;51.386;12.516;2024-03-08T08:58:57;21.80;;;11.90;;
19747;SDS011;10032;51.386;12.516;2024-03-08T09:01:23;19.43;;;12.77;;
19747;SDS011;10032;51.386;12.516;2024-03-08T09:03:48;19.57;;;11.97;;
19747;SDS011;10032;51.386;12.516;2024-03-08T09:06:15;21.47;;;11.30;;
19747;SDS011;10032;51.386;12.516;2024-03-08T09:08:41;16.47;;;10.13;;
19747;SDS011;10032;51.386;12.516;2024-03-08T09:11:07;21.00;;;13.50;;
19747;SDS011;10032;51.386;12.516;2024-03-08T09:13:32;20.27;;;10.87;;
19747;SDS011;10032;51.386;12.516;2024-03-08T09:16:01;21.20;;;12.17;;
19747;SDS011;10032;51.386;12.516;2024-03-08T09:18:28;22.90;;;11.90;;
19747;SDS011;10032;51.386;12.516;2024-03-08T09:20:54;20.07;;;11.97;;
19747;SDS011;10032;51.386;12.516;2024-03-08T09:23:19;19.57;;;11.73;;
19747;SDS011;10032;51.386;12.516;2024-03-08T09:25:45;16.63;;;11.10;;
19747;SDS011;10032;51.386;12.516;2024-03-08T09:28:11;17.60;;;9.63;;
19747;SDS011;10032;51.386;12.516;2024-03-08T09:30:37;22.37;;;11.67;;
19747;SDS011;10032;51.386;12.516;2024-03-08T09:33:03;19.10;;;11.00;;
19747;SDS011;10032;51.386;12.516;2024-03-08T09:35:29;20.20;;;10.43;;
19747;SDS011;10032;51.386;12.516;2024-03-08T09:37:55;19.47;;;11.27;;
19747;SDS011;10032;51.386;12.516;2024-03-08T09:40:21;19.27;;;10.27;;
19747;SDS011;10032;51.386;12.516;2024-03-08T09:42:48;20.03;;;10.93;;
19747;SDS011;10032;51.386;12.516;2024-03-08T09:45:14;18.70;;;11.13;;
19747;SDS011;10032;51.386;12.516;2024-03-08T09:47:42;19.73;;;11.70;;
19747;SDS011;10032;51.386;12.516;2024-03-08T09:50:10;19.07;;;9.50;;
19747;SDS011;10032;51.386;12.516;2024-03-08T09:52:38;18.13;;;10.50;;
19747;SDS011;10032;51.386;12.516;2024-03-08T09:55:05;17.07;;;11.47;;
19747;SDS011;10032;51.386;12.516;2024-03-08T09:57:32;17.60;;;10.20;;
19747;SDS011;10032;51.386;12.516;2024-03-08T09:59:58;20.73;;;9.87;;
19747;SDS011;10032;51.386;12.516;2024-03-08T10:02:24;21.63;;;11.27;;
19747;SDS011;10032;51.386;12.516;2024-03-08T10:04:50;17.37;;;9.00;;
19747;SDS011;10032;51.386;12.516;2024-03-08T10:07:18;21.67;;;11.03;;
19747;SDS011;10032;51.386;12.516;2024-03-08T10:09:44;17.90;;;10.37;;
19747;SDS011;10032;51.386;12.516;2024-03-08T10:12:15;20.30;;;10.33;;
19747;SDS011;10032;51.386;12.516;2024-03-08T10:14:42;19.07;;;10.77;;
19747;SDS011;10032;51.386;12.516;2024-03-08T10:17:08;17.07;;;9.47;;
19747;SDS011;10032;51.386;12.516;2024-03-08T10:19:33;17.67;;;10.53;;
19747;SDS011;10032;51.386;12.516;2024-03-08T10:21:59;20.77;;;10.57;;
19747;SDS011;10032;51.386;12.516;2024-03-08T10:24:24;16.93;;;9.40;;
19747;SDS011;10032;51.386;12.516;2024-03-08T10:26:58;16.97;;;8.80;;
19747;SDS011;10032;51.386;12.516;2024-03-08T10:29:24;16.27;;;10.10;;
19747;SDS011;10032;51.386;12.516;2024-03-08T10:31:50;19.90;;;10.20;;
19747;SDS011;10032;51.386;12.516;2024-03-08T10:34:16;17.97;;;10.33;;
19747;SDS011;10032;51.386;12.516;2024-03-08T10:36:42;17.40;;;10.20;;
19747;SDS011;10032;51.386;12.516;2024-03-08T10:39:14;17.13;;;9.03;;
19747;SDS011;10032;51.386;12.516;2024-03-08T10:41:49;16.23;;;9.57;;
19747;SDS011;10032;51.386;12.516;2024-03-08T10:44:32;18.53;;;8.63;;
19747;SDS011;10032;51.386;12.516;2024-03-08T10:52:12;17.43;;;10.20;;
19747;SDS011;10032;51.386;12.516;2024-03-08T10:54:40;17.67;;;10.70;;
19747;SDS011;10032;51.386;12.516;2024-03-08T10:57:08;16.37;;;9.67;;
19747;SDS011;10032;51.386;12.516;2024-03-08T10:59:37;18.20;;;10.73;;
19747;SDS011;10032;51.386;12.516;2024-03-08T11:02:02;15.80;;;10.33;;
19747;SDS011;10032;51.386;12.516;2024-03-08T11:04:30;19.80;;;10.10;;
19747;SDS011;10032;51.386;12.516;2024-03-08T11:07:01;18.20;;;10.70;;
19747;SDS011;10032;51.386;12.516;2024-03-08T11:09:32;15.93;;;9.13;;
19747;SDS011;10032;51.386;12.516;2024-03-08T11:14:49;16.80;;;9.83;;
19747;SDS011;10032;51.386;12.516;2024-03-08T11:17:20;15.33;;;9.40;;
19747;SDS011;10032;51.386;12.516;2024-03-08T11:19:47;13.83;;;9.57;;
19747;SDS011;10032;51.386;12.516;2024-03-08T11:22:20;19.17;;;9.83;;
19747;SDS011;10032;51.386;12.516;2024-03-08T11:24:48;19.27;;;10.80;;
19747;SDS011;10032;51.386;12.516;2024-03-08T11:27:14;17.00;;;10.10;;
19747;SDS011;10032;51.386;12.516;2024-03-08T11:29:40;13.87;;;9.37;;
19747;SDS011;10032;51.386;12.516;2024-03-08T11:32:12;16.00;;;9.93;;
19747;SDS011;10032;51.386;12.516;2024-03-08T11:34:46;16.73;;;9.03;;
19747;SDS011;10032;51.386;12.516;2024-03-08T11:37:18;15.83;;;8.63;;
19747;SDS011;10032;51.386;12.516;2024-03-08T11:39:49;15.33;;;8.53;;
19747;SDS011;10032;51.386;12.516;2024-03-08T11:42:15;15.53;;;8.90;;
19747;SDS011;10032;51.386;12.516;2024-03-08T11:44:44;16.17;;;8.87;;
19747;SDS011;10032;51.386;12.516;2024-03-08T11:47:13;13.47;;;9.40;;
19747;SDS011;10032;51.386;12.516;2024-03-08T11:49:39;16.83;;;9.70;;
19747;SDS011;10032;51.386;12.516;2024-03-08T11:52:12;20.37;;;11.20;;
19747;SDS011;10032;51.386;12.516;2024-03-08T11:54:38;17.40;;;8.73;;
19747;SDS011;10032;51.386;12.516;2024-03-08T11:57:04;13.33;;;8.33;;
19747;SDS011;10032;51.386;12.516;2024-03-08T11:59:29;15.33;;;10.50;;
19747;SDS011;10032;51.386;12.516;2024-03-08T12:01:59;15.17;;;9.37;;
19747;SDS011;10032;51.386;12.516;2024-03-08T12:04:27;15.67;;;9.23;;
19747;SDS011;10032;51.386;12.516;2024-03-08T12:06:52;14.50;;;8.13;;
19747;SDS011;10032;51.386;12.516;2024-03-08T12:09:18;15.10;;;8.57;;
19747;SDS011;10032;51.386;12.516;2024-03-08T12:11:47;15.70;;;8.60;;
19747;SDS011;10032;51.386;12.516;2024-03-08T12:14:13;20.83;;;10.17;;
19747;SDS011;10032;51.386;12.516;2024-03-08T12:16:38;16.03;;;9.13;;
19747;SDS011;10032;51.386;12.516;2024-03-08T12:19:03;14.63;;;8.03;;
19747;SDS011;10032;51.386;12.516;2024-03-08T12:21:31;18.57;;;8.60;;
19747;SDS011;10032;51.386;12.516;2024-03-08T12:26:35;16.60;;;9.20;;
19747;SDS011;10032;51.386;12.516;2024-03-08T12:29:14;15.27;;;8.60;;
19747;SDS011;10032;51.386;12.516;2024-03-08T12:31:42;20.10;;;10.10;;
19747;SDS011;10032;51.386;12.516;2024-03-08T12:34:08;16.60;;;9.63;;
19747;SDS011;10032;51.386;12.516;2024-03-08T12:36:35;16.73;;;10.57;;
19747;SDS011;10032;51.386;12.516;2024-03-08T12:39:05;17.37;;;9.70;;
19747;SDS011;10032;51.386;12.516;2024-03-08T12:41:32;19.10;;;10.80;;
19747;SDS011;10032;51.386;12.516;2024-03-08T12:43:57;14.60;;;9.20;;
19747;SDS011;10032;51.386;12.516;2024-03-08T12:46:23;18.03;;;10.87;;
19747;SDS011;10032;51.386;12.516;2024-03-08T12:48:51;17.07;;;10.27;;
19747;SDS011;10032;51.386;12.516;2024-03-08T12:51:18;17.80;;;10.03;;
19747;SDS011;10032;51.386;12.516;2024-03-08T12:53:46;14.63;;;9.00;;
19747;SDS011;10032;51.386;12.516;2024-03-08T12:56:12;15.07;;;9.60;;
19747;SDS011;10032;51.386;12.516;2024-03-08T12:58:39;17.03;;;9.60;;
19747;SDS011;10032;51.386;12.516;2024-03-08T13:01:05;15.87;;;9.23;;
19747;SDS011;10032;51.386;12.516;2024-03-08T13:03:32;14.00;;;8.53;;
19747;SDS011;10032;51.386;12.516;2024-03-08T13:06:02;20.03;;;9.93;;
19747;SDS011;10032;51.386;12.516;2024-03-08T13:08:32;16.10;;;8.57;;
19747;SDS011;10032;51.386;12.516;2024-03-08T13:11:04;18.97;;;9.47;;
19747;SDS011;10032;51.386;12.516;2024-03-08T13:13:30;17.30;;;10.53;;
19747;SDS011;10032;51.386;12.516;2024-03-08T13:15:55;14.83;;;8.93;;
19747;SDS011;10032;51.386;12.516;2024-03-08T13:18:21;13.83;;;8.53;;
19747;SDS011;10032;51.386;12.516;2024-03-08T13:20:48;17.73;;;10.77;;
19747;SDS011;10032;51.386;12.516;2024-03-08T13:23:16;18.23;;;9.97;;
19747;SDS011;10032;51.386;12.516;2024-03-08T13:25:42;17.87;;;9.30;;
19747;SDS011;10032;51.386;12.516;2024-03-08T13:28:08;17.40;;;9.03;;
19747;SDS011;10032;51.386;12.516;2024-03-08T13:30:34;15.40;;;9.40;;
19747;SDS011;10032;51.386;12.516;2024-03-08T13:33:00;17.90;;;9.23;;
19747;SDS011;10032;51.386;12.516;2024-03-08T13:35:26;25.23;;;10.37;;
19747;SDS011;10032;51.386;12.516;2024-03-08T13:37:52;17.07;;;9.27;;
19747;SDS011;10032;51.386;12.516;2024-03-08T13:40:18;15.83;;;8.73;;
19747;SDS011;10032;51.386;12.516;2024-03-08T13:42:46;13.53;;;8.13;;
19747;SDS011;10032;51.386;12.516;2024-03-08T13:45:13;18.23;;;9.57;;
19747;SDS011;10032;51.386;12.516;2024-03-08T13:47:42;17.47;;;9.60;;
19747;SDS011;10032;51.386;12.516;2024-03-08T13:50:09;16.63;;;9.67;;
19747;SDS011;10032;51.386;12.516;2024-03-08T13:52:38;18.20;;;10.47;;
19747;SDS011;10032;51.386;12.516;2024-03-08T13:55:04;16.37;;;9.40;;
19747;SDS011;10032;51.386;12.516;2024-03-08T13:57:30;14.23;;;8.30;;
19747;SDS011;10032;51.386;12.516;2024-03-08T13:59:57;20.17;;;8.80;;
19747;SDS011;10032;51.386;12.516;2024-03-08T14:02:22;15.00;;;9.57;;
19747;SDS011;10032;51.386;12.516;2024-03-08T14:04:52;14.50;;;9.57;;
19747;SDS011;10032;51.386;12.516;2024-03-08T14:07:19;12.47;;;8.83;;
19747;SDS011;10032;51.386;12.516;2024-03-08T14:09:45;15.70;;;9.33;;
19747;SDS011;10032;51.386;12.516;2024-03-08T14:12:10;15.50;;;10.10;;
19747;SDS011;10032;51.386;12.516;2024-03-08T14:14:36;15.50;;;9.03;;
19747;SDS011;10032;51.386;12.516;2024-03-08T14:17:01;14.90;;;8.60;;
19747;SDS011;10032;51.386;12.516;2024-03-08T14:19:28;15.27;;;8.80;;
19747;SDS011;10032;51.386;12.516;2024-03-08T14:21:55;16.67;;;9.50;;